sensor_id;sensor_type;location;lat;lon;timestamp;P1;durP1;ratioP1;P2;durP2;ratioP2
3831;SDS011;12460;42.662;23.288;2023-09-07T00:08:51;12.13;;;10.90;;
3831;SDS011;12460;42.662;23.288;2023-09-07T00:23:53;12.40;;;11.30;;
3831;SDS011;12460;42.662;23.288;2023-09-07T00:38:56;14.83;;;13.33;;
3831;SDS011;12460;42.662;23.288;2023-09-07T00:53:58;17.20;;;15.43;;
3831;SDS011;12460;42.662;23.288;2023-09-07T01:09:03;19.70;;;17.53;;
3831;SDS011;12460;42.662;23.288;2023-09-07T01:24:12;20.53;;;18.27;;
3831;SDS011;12460;42.662;23.288;2023-09-07T01:39:16;20.73;;;18.60;;
3831;SDS011;12460;42.662;23.288;2023-09-07T01:54:21;18.70;;;16.80;;
3831;SDS011;12460;42.662;23.288;2023-09-07T02:09:23;20.90;;;18.73;;
3831;SDS011;12460;42.662;23.288;2023-09-07T02:24:25;20.77;;;18.27;;
3831;SDS011;12460;42.662;23.288;2023-09-07T02:39:27;20.10;;;18.00;;
3831;SDS011;12460;42.662;23.288;2023-09-07T02:54:29;22.27;;;18.17;;
3831;SDS011;12460;42.662;23.288;2023-09-07T03:09:32;22.23;;;20.03;;
3831;SDS011;12460;42.662;23.288;2023-09-07T03:24:34;20.67;;;18.40;;
3831;SDS011;12460;42.662;23.288;2023-09-07T03:39:36;24.70;;;21.40;;
3831;SDS011;12460;42.662;23.288;2023-09-07T03:54:38;24.00;;;20.67;;
3831;SDS011;12460;42.662;23.288;2023-09-07T04:09:40;26.07;;;21.47;;
3831;SDS011;12460;42.662;23.288;2023-09-07T04:24:47;23.47;;;20.37;;
3831;SDS011;12460;42.662;23.288;2023-09-07T04:39:51;24.30;;;20.03;;
3831;SDS011;12460;42.662;23.288;2023-09-07T04:54:57;25.03;;;20.40;;
3831;SDS011;12460;42.662;23.288;2023-09-07T05:10:00;22.13;;;19.67;;
3831;SDS011;12460;42.662;23.288;2023-09-07T05:25:02;20.30;;;16.83;;
3831;SDS011;12460;42.662;23.288;2023-09-07T05:40:04;19.37;;;17.27;;
3831;SDS011;12460;42.662;23.288;2023-09-07T05:55:07;19.87;;;17.73;;
3831;SDS011;12460;42.662;23.288;2023-09-07T06:10:09;19.43;;;17.43;;
3831;SDS011;12460;42.662;23.288;2023-09-07T06:25:12;20.90;;;15.90;;
3831;SDS011;12460;42.662;23.288;2023-09-07T06:40:15;14.70;;;13.20;;
3831;SDS011;12460;42.662;23.288;2023-09-07T06:55:21;12.83;;;11.57;;
3831;SDS011;12460;42.662;23.288;2023-09-07T07:10:23;12.43;;;11.33;;
3831;SDS011;12460;42.662;23.288;2023-09-07T07:25:26;12.43;;;11.33;;
3831;SDS011;12460;42.662;23.288;2023-09-07T07:40:28;12.70;;;11.33;;
3831;SDS011;12460;42.662;23.288;2023-09-07T07:55:30;12.47;;;11.33;;
3831;SDS011;12460;42.662;23.288;2023-09-07T08:10:41;12.37;;;11.07;;
3831;SDS011;12460;42.662;23.288;2023-09-07T08:25:44;11.10;;;10.13;;
3831;SDS011;12460;42.662;23.288;2023-09-07T08:40:49;11.10;;;10.00;;
3831;SDS011;12460;42.662;23.288;2023-09-07T08:55:52;11.17;;;10.17;;
3831;SDS011;12460;42.662;23.288;2023-09-07T09:11:01;9.53;;;8.73;;
3831;SDS011;12460;42.662;23.288;2023-09-07T09:26:05;9.50;;;8.60;;
3831;SDS011;12460;42.662;23.288;2023-09-07T09:41:07;9.00;;;8.17;;
3831;SDS011;12460;42.662;23.288;2023-09-07T09:56:11;9.90;;;8.90;;
3831;SDS011;12460;42.662;23.288;2023-09-07T10:11:13;8.97;;;8.17;;
3831;SDS011;12460;42.662;23.288;2023-09-07T10:26:15;9.40;;;8.60;;
3831;SDS011;12460;42.662;23.288;2023-09-07T10:41:18;8.40;;;7.70;;
3831;SDS011;12460;42.662;23.288;2023-09-07T10:56:20;8.70;;;7.90;;
3831;SDS011;12460;42.662;23.288;2023-09-07T11:11:27;10.70;;;9.37;;
3831;SDS011;12460;42.662;23.288;2023-09-07T11:26:29;10.47;;;8.93;;
3831;SDS011;12460;42.662;23.288;2023-09-07T11:41:42;9.30;;;8.40;;
3831;SDS011;12460;42.662;23.288;2023-09-07T11:56:45;8.30;;;7.57;;
3831;SDS011;12460;42.662;23.288;2023-09-07T12:11:47;8.10;;;7.30;;
3831;SDS011;12460;42.662;23.288;2023-09-07T12:26:49;8.00;;;7.30;;
3831;SDS011;12460;42.662;23.288;2023-09-07T12:41:51;7.90;;;7.07;;
3831;SDS011;12460;42.662;23.288;2023-09-07T12:56:53;7.20;;;6.60;;
3831;SDS011;12460;42.662;23.288;2023-09-07T13:11:55;8.00;;;7.30;;
3831;SDS011;12460;42.662;23.288;2023-09-07T13:26:57;7.60;;;6.97;;
3831;SDS011;12460;42.662;23.288;2023-09-07T13:41:59;6.73;;;6.13;;
3831;SDS011;12460;42.662;23.288;2023-09-07T13:57:00;7.20;;;6.60;;
3831;SDS011;12460;42.662;23.288;2023-09-07T14:12:02;8.80;;;7.00;;
3831;SDS011;12460;42.662;23.288;2023-09-07T14:27:04;8.00;;;7.30;;
3831;SDS011;12460;42.662;23.288;2023-09-07T14:42:07;8.23;;;7.60;;
3831;SDS011;12460;42.662;23.288;2023-09-07T14:57:15;7.70;;;7.00;;
3831;SDS011;12460;42.662;23.288;2023-09-07T15:12:19;8.03;;;7.40;;
3831;SDS011;12460;42.662;23.288;2023-09-07T15:27:21;7.57;;;6.87;;
3831;SDS011;12460;42.662;23.288;2023-09-07T15:42:23;8.13;;;7.43;;
3831;SDS011;12460;42.662;23.288;2023-09-07T15:57:25;8.10;;;7.30;;
3831;SDS011;12460;42.662;23.288;2023-09-07T16:12:27;8.00;;;7.20;;
3831;SDS011;12460;42.662;23.288;2023-09-07T16:27:29;7.80;;;7.10;;
3831;SDS011;12460;42.662;23.288;2023-09-07T16:42:31;8.77;;;7.87;;
3831;SDS011;12460;42.662;23.288;2023-09-07T16:57:33;8.30;;;7.60;;
3831;SDS011;12460;42.662;23.288;2023-09-07T17:12:36;9.17;;;8.00;;
3831;SDS011;12460;42.662;23.288;2023-09-07T17:27:38;10.50;;;8.70;;
3831;SDS011;12460;42.662;23.288;2023-09-07T17:42:40;8.57;;;7.63;;
3831;SDS011;12460;42.662;23.288;2023-09-07T17:57:42;9.20;;;8.30;;
3831;SDS011;12460;42.662;23.288;2023-09-07T18:12:44;10.83;;;8.30;;
3831;SDS011;12460;42.662;23.288;2023-09-07T18:27:46;11.03;;;9.20;;
3831;SDS011;12460;42.662;23.288;2023-09-07T18:42:48;9.50;;;8.57;;
3831;SDS011;12460;42.662;23.288;2023-09-07T18:57:50;10.73;;;7.70;;
3831;SDS011;12460;42.662;23.288;2023-09-07T19:12:53;9.73;;;7.83;;
3831;SDS011;12460;42.662;23.288;2023-09-07T19:27:55;10.43;;;8.07;;
3831;SDS011;12460;42.662;23.288;2023-09-07T19:42:57;9.77;;;8.67;;
3831;SDS011;12460;42.662;23.288;2023-09-07T19:57:58;9.47;;;7.83;;
3831;SDS011;12460;42.662;23.288;2023-09-07T20:13:00;8.80;;;8.00;;
3831;SDS011;12460;42.662;23.288;2023-09-07T20:28:02;9.20;;;8.40;;
3831;SDS011;12460;42.662;23.288;2023-09-07T20:43:05;8.80;;;7.67;;
3831;SDS011;12460;42.662;23.288;2023-09-07T20:58:08;8.37;;;7.67;;
3831;SDS011;12460;42.662;23.288;2023-09-07T21:13:11;8.53;;;7.73;;
3831;SDS011;12460;42.662;23.288;2023-09-07T21:28:13;7.97;;;7.37;;
3831;SDS011;12460;42.662;23.288;2023-09-07T21:43:15;8.23;;;7.23;;
3831;SDS011;12460;42.662;23.288;2023-09-07T21:58:17;7.60;;;6.97;;
3831;SDS011;12460;42.662;23.288;2023-09-07T22:13:19;8.50;;;7.70;;
3831;SDS011;12460;42.662;23.288;2023-09-07T22:28:21;9.73;;;7.30;;
3831;SDS011;12460;42.662;23.288;2023-09-07T22:43:23;8.03;;;7.40;;
3831;SDS011;12460;42.662;23.288;2023-09-07T22:58:25;10.13;;;9.13;;
3831;SDS011;12460;42.662;23.288;2023-09-07T23:13:28;10.47;;;9.57;;
3831;SDS011;12460;42.662;23.288;2023-09-07T23:28:29;13.73;;;12.30;;
3831;SDS011;12460;42.662;23.288;2023-09-07T23:43:32;12.93;;;11.57;;
3831;SDS011;12460;42.662;23.288;2023-09-07T23:58:34;12.97;;;11.63;;
